createdAt,value
2019-05-07T00:02:18.511Z,76.89
2019-05-07T00:04:47.115Z,75.93
2019-05-07T00:07:15.733Z,77.15
2019-05-07T00:09:44.317Z,76.66
2019-05-07T00:12:12.965Z,76.20
2019-05-07T00:14:42.903Z,75.45
2019-05-07T00:17:13.044Z,75.52
2019-05-07T00:19:43.250Z,74.90
2019-05-07T00:22:12.545Z,76.51
2019-05-07T00:24:42.651Z,76.67
2019-05-07T00:27:13.101Z,75.52
2019-05-07T00:29:42.952Z,74.80
2019-05-07T00:32:12.271Z,75.17
2019-05-07T00:34:42.666Z,74.77
2019-05-07T00:37:22.228Z,74.37
2019-05-07T00:40:08.398Z,72.83
2019-05-07T00:42:54.686Z,74.00
2019-05-07T00:45:27.549Z,73.70
2019-05-07T00:47:56.015Z,72.21
2019-05-07T00:50:29.159Z,73.80
2019-05-07T00:52:57.768Z,73.70
2019-05-07T00:55:26.401Z,74.37
2019-05-07T00:57:55.101Z,74.09
2019-05-07T01:00:23.779Z,72.92
2019-05-07T01:02:52.675Z,71.71
2019-05-07T01:05:23.101Z,73.67
2019-05-07T01:07:52.881Z,72.22
2019-05-07T01:10:22.362Z,72.46
2019-05-07T01:12:53.100Z,72.37
2019-05-07T01:15:31.178Z,72.61
2019-05-07T01:17:53.276Z,73.05
2019-05-07T01:20:22.203Z,73.20
2019-05-07T01:22:54.526Z,73.66
2019-05-07T01:25:22.842Z,74.11
2019-05-07T01:27:53.274Z,74.67
2019-05-07T01:30:23.092Z,74.48
2019-05-07T01:33:02.900Z,74.69
2019-05-07T01:35:33.210Z,74.75
2019-05-07T01:38:03.161Z,73.35
2019-05-07T01:40:32.436Z,73.02
2019-05-07T01:43:02.582Z,73.24
2019-05-07T01:45:43.214Z,73.33
2019-05-07T01:48:04.215Z,71.83
2019-05-07T01:50:32.323Z,72.51
2019-05-07T01:53:00.952Z,72.72
2019-05-07T01:55:29.427Z,73.02
2019-05-07T01:57:58.153Z,72.74
2019-05-07T02:00:26.826Z,71.64
2019-05-07T02:02:56.935Z,72.97
2019-05-07T02:05:43.494Z,72.43
2019-05-07T02:08:13.604Z,72.29
2019-05-07T02:11:02.247Z,72.80
2019-05-07T02:13:30.878Z,73.28
2019-05-07T02:16:01.863Z,72.65
2019-05-07T02:18:32.581Z,73.75
2019-05-07T02:21:03.273Z,72.04
2019-05-07T02:23:33.004Z,72.05
2019-05-07T02:26:02.555Z,72.26
2019-05-07T02:28:32.924Z,72.49
2019-05-07T02:31:04.133Z,71.39
2019-05-07T02:33:34.846Z,71.62
2019-05-07T02:36:02.995Z,71.79
2019-05-07T02:38:35.993Z,72.03
2019-05-07T02:41:14.218Z,70.66
2019-05-07T02:43:43.142Z,70.37
2019-05-07T02:46:31.942Z,70.74
2019-05-07T02:49:03.144Z,70.51
2019-05-07T02:51:33.821Z,70.56
2019-05-07T02:54:13.228Z,70.84
2019-05-07T02:56:43.233Z,70.42
2019-05-07T02:59:13.729Z,70.37
2019-05-07T03:01:43.276Z,70.60
2019-05-07T03:04:12.952Z,69.73
2019-05-07T03:06:44.174Z,70.90
2019-05-07T03:09:14.555Z,70.44
2019-05-07T03:11:43.593Z,70.00
2019-05-07T03:14:13.923Z,70.84
2019-05-07T03:19:13.298Z,70.23
2019-05-07T03:21:55.348Z,69.80
2019-05-07T03:24:29.749Z,69.80
2019-05-07T03:27:02.858Z,70.18
2019-05-07T03:29:32.998Z,69.53
2019-05-07T03:32:18.177Z,69.91
2019-05-07T03:34:48.459Z,70.51
2019-05-07T03:37:18.644Z,70.50
2019-05-07T03:39:47.265Z,70.53
2019-05-07T03:42:15.835Z,71.60
2019-05-07T03:44:53.666Z,71.49
2019-05-07T03:47:29.314Z,70.34
2019-05-07T03:49:57.915Z,71.36
2019-05-07T03:52:26.476Z,71.07
2019-05-07T03:54:55.012Z,70.07
2019-05-07T03:57:24.013Z,70.44
2019-05-07T03:59:54.229Z,70.68
2019-05-07T04:02:23.820Z,70.00
2019-05-07T04:04:53.123Z,68.92
2019-05-07T04:07:23.504Z,68.93
2019-05-07T04:09:53.486Z,70.07
2019-05-07T04:12:23.946Z,68.32
2019-05-07T04:14:54.531Z,70.03
2019-05-07T04:17:26.669Z,69.10
2019-05-07T04:19:53.470Z,68.68
2019-05-07T04:22:26.444Z,68.61
2019-05-07T04:24:54.746Z,68.51
2019-05-07T04:27:36.738Z,68.51
2019-05-07T04:30:08.514Z,68.27
2019-05-07T04:32:38.730Z,66.91
2019-05-07T04:35:09.178Z,68.60
2019-05-07T04:37:37.658Z,67.82
2019-05-07T04:40:06.774Z,67.08
2019-05-07T04:42:35.342Z,66.53
2019-05-07T04:45:06.051Z,67.16
2019-05-07T04:47:43.258Z,66.59
2019-05-07T04:50:13.651Z,66.63
2019-05-07T04:52:43.681Z,65.85
2019-05-07T04:55:13.811Z,63.77
2019-05-07T04:57:43.855Z,64.21
2019-05-07T05:00:13.582Z,63.94
2019-05-07T05:02:56.096Z,64.64
2019-05-07T05:05:25.467Z,63.33
2019-05-07T05:07:54.005Z,62.66
2019-05-07T05:10:23.225Z,64.12
2019-05-07T05:12:53.697Z,61.85
2019-05-07T05:15:22.643Z,61.07
2019-05-07T05:17:53.873Z,62.13
2019-05-07T05:20:23.218Z,61.02
2019-05-07T05:23:05.331Z,61.21
2019-05-07T05:25:35.581Z,60.94
2019-05-07T05:28:04.378Z,61.17
2019-05-07T05:30:34.625Z,62.12
2019-05-07T05:33:04.374Z,61.38
2019-05-07T05:35:33.530Z,60.10
2019-05-07T05:38:03.100Z,61.88
2019-05-07T05:40:32.113Z,60.67
2019-05-07T05:43:08.095Z,60.01
2019-05-07T05:45:38.671Z,59.25
2019-05-07T05:48:08.648Z,60.33
2019-05-07T05:50:39.014Z,59.37
2019-05-07T05:53:15.102Z,59.72
2019-05-07T05:55:44.295Z,60.40
2019-05-07T05:58:17.219Z,59.24
2019-05-07T06:00:52.978Z,61.20
2019-05-07T06:03:23.835Z,59.21
2019-05-07T06:05:56.728Z,57.95
2019-05-07T06:08:39.015Z,59.83
2019-05-07T06:11:21.909Z,62.14
2019-05-07T06:13:52.756Z,57.12
2019-05-07T06:16:22.957Z,57.60
2019-05-07T06:18:55.934Z,57.18
2019-05-07T06:21:42.625Z,55.88
2019-05-07T06:24:15.479Z,56.05
2019-05-07T06:26:44.083Z,58.63
2019-05-07T06:29:12.842Z,57.99
2019-05-07T06:31:42.181Z,59.08
2019-05-07T06:34:12.435Z,59.52
2019-05-07T06:36:42.460Z,58.52
2019-05-07T06:39:15.405Z,58.35
2019-05-07T06:42:03.245Z,56.40
2019-05-07T06:44:32.567Z,55.63
2019-05-07T06:47:02.482Z,56.78
2019-05-07T06:49:32.434Z,53.85
2019-05-07T06:52:03.042Z,53.61
2019-05-07T06:54:32.174Z,53.53
2019-05-07T06:57:02.053Z,52.76
2019-05-07T06:59:34.791Z,52.88
2019-05-07T07:02:22.514Z,54.22
2019-05-07T07:04:53.263Z,55.19
2019-05-07T07:07:32.323Z,52.76
2019-05-07T07:10:02.682Z,53.65
2019-05-07T07:12:33.872Z,53.42
2019-05-07T07:15:02.844Z,53.86
2019-05-07T07:17:32.619Z,53.51
2019-05-07T07:20:02.367Z,52.14
2019-05-07T07:22:31.931Z,51.21
2019-05-07T07:25:02.914Z,52.30
2019-05-07T07:27:32.243Z,53.99
2019-05-07T07:30:02.738Z,53.42
2019-05-07T07:32:33.010Z,55.00
2019-05-07T07:35:02.388Z,56.05
2019-05-07T07:37:43.011Z,51.86
2019-05-07T07:40:15.399Z,52.13
2019-05-07T07:42:44.044Z,53.32
2019-05-07T07:45:19.601Z,53.01
2019-05-07T07:47:48.388Z,51.30
2019-05-07T07:50:18.567Z,53.14
2019-05-07T07:52:47.160Z,52.75
2019-05-07T07:55:17.940Z,53.96
2019-05-07T07:57:52.086Z,54.04
2019-05-07T08:00:23.372Z,52.27
2019-05-07T08:02:56.775Z,54.16
2019-05-07T08:05:25.248Z,52.49
2019-05-07T08:07:53.902Z,51.58
2019-05-07T08:10:22.465Z,53.92
2019-05-07T08:12:52.583Z,54.62
2019-05-07T08:15:24.464Z,53.12
2019-05-07T08:17:52.232Z,52.27
2019-05-07T08:20:22.272Z,52.46
2019-05-07T08:22:52.635Z,53.25
2019-05-07T08:25:23.243Z,52.64
2019-05-07T08:27:52.455Z,53.13
2019-05-07T08:30:23.408Z,52.44
2019-05-07T08:32:56.456Z,53.66
2019-05-07T08:35:26.705Z,52.90
2019-05-07T08:37:55.272Z,53.36
2019-05-07T08:40:23.802Z,52.14
2019-05-07T08:42:53.115Z,52.02
2019-05-07T08:45:39.693Z,51.63
2019-05-07T08:48:12.480Z,52.38
2019-05-07T08:50:41.914Z,52.79
2019-05-07T08:53:13.040Z,52.40
2019-05-07T08:55:42.453Z,51.62
2019-05-07T08:58:12.053Z,52.29
2019-05-07T09:00:41.808Z,53.74
2019-05-07T09:03:20.060Z,50.29
2019-05-07T09:05:42.631Z,51.14
2019-05-07T09:08:12.870Z,48.27
2019-05-07T09:10:42.293Z,48.31
2019-05-07T09:13:12.584Z,47.46
2019-05-07T09:15:42.510Z,48.66
2019-05-07T09:18:12.374Z,45.15
2019-05-07T09:20:42.543Z,46.08
2019-05-07T09:23:12.239Z,46.12
2019-05-07T09:25:42.646Z,47.66
2019-05-07T09:28:11.877Z,47.24
2019-05-07T09:30:58.717Z,45.75
2019-05-07T09:33:28.965Z,43.42
2019-05-07T09:35:57.523Z,43.72
2019-05-07T09:38:26.125Z,44.99
2019-05-07T09:40:57.011Z,45.81
2019-05-07T09:43:25.281Z,48.15
2019-05-07T09:45:53.874Z,49.12
2019-05-07T09:48:22.483Z,49.69
2019-05-07T09:50:53.017Z,52.02
2019-05-07T09:53:22.820Z,52.20
2019-05-07T09:55:51.699Z,52.44
2019-05-07T09:58:34.860Z,52.89
2019-05-07T10:00:51.978Z,53.67
2019-05-07T10:03:22.678Z,51.99
2019-05-07T10:05:52.708Z,50.47
2019-05-07T10:08:21.553Z,51.14
2019-05-07T10:10:53.085Z,51.42
2019-05-07T10:13:25.168Z,50.37
2019-05-07T10:15:53.770Z,51.16
2019-05-07T10:18:22.873Z,49.07
2019-05-07T10:20:52.235Z,50.49
2019-05-07T10:23:22.971Z,51.09
2019-05-07T10:25:52.804Z,49.65
2019-05-07T10:28:22.756Z,50.41
2019-05-07T10:30:52.269Z,50.35
2019-05-07T10:33:22.900Z,48.89
2019-05-07T10:35:52.919Z,49.40
2019-05-07T10:38:22.216Z,49.60
2019-05-07T10:40:53.616Z,49.44
2019-05-07T10:43:23.140Z,49.31
2019-05-07T10:45:53.690Z,48.65
2019-05-07T10:48:31.880Z,49.21
2019-05-07T10:51:08.888Z,46.55
2019-05-07T10:53:37.524Z,44.57
2019-05-07T10:56:06.129Z,44.30
2019-05-07T10:58:34.745Z,44.15
2019-05-07T11:01:03.408Z,46.28
2019-05-07T11:03:32.535Z,47.54
2019-05-07T11:06:01.323Z,47.30
2019-05-07T11:08:30.003Z,46.65
2019-05-07T11:10:58.557Z,48.16
2019-05-07T11:13:27.177Z,49.55
2019-05-07T11:16:03.468Z,50.21
2019-05-07T11:18:39.489Z,50.85
2019-05-07T11:21:08.099Z,51.22
2019-05-07T11:23:36.683Z,52.17
2019-05-07T11:26:05.305Z,52.20
2019-05-07T11:28:33.907Z,52.68
2019-05-07T11:31:02.540Z,53.15
2019-05-07T11:33:32.603Z,52.39
2019-05-07T11:36:02.104Z,51.54
2019-05-07T11:38:33.125Z,50.75
2019-05-07T11:41:02.302Z,50.26
2019-05-07T11:43:48.123Z,48.16
2019-05-07T11:46:34.841Z,47.47
2019-05-07T11:49:14.035Z,46.76
2019-05-07T11:51:44.277Z,48.41
2019-05-07T11:54:16.031Z,49.39
2019-05-07T11:56:44.642Z,50.32
2019-05-07T11:59:13.626Z,51.00
2019-05-07T12:01:47.447Z,53.10
2019-05-07T12:04:17.429Z,52.79
2019-05-07T12:06:46.036Z,53.23
2019-05-07T12:09:14.578Z,54.05
2019-05-07T12:11:43.277Z,54.21
2019-05-07T12:14:12.357Z,54.64
2019-05-07T12:16:42.534Z,55.00
2019-05-07T12:19:13.024Z,55.30
2019-05-07T12:21:42.324Z,55.08
2019-05-07T12:24:12.547Z,54.87
2019-05-07T12:26:42.900Z,53.63
2019-05-07T12:29:11.944Z,53.44
2019-05-07T12:31:42.597Z,53.62
2019-05-07T12:34:19.373Z,54.06
2019-05-07T12:36:47.914Z,53.26
2019-05-07T12:39:16.578Z,53.25
2019-05-07T12:41:45.210Z,52.42
2019-05-07T12:44:13.817Z,52.13
2019-05-07T12:46:42.584Z,52.25
2019-05-07T12:49:11.958Z,52.51
2019-05-07T12:51:51.684Z,52.07
2019-05-07T12:54:22.706Z,52.24
2019-05-07T12:56:52.073Z,54.23
2019-05-07T12:59:21.898Z,55.22
2019-05-07T13:01:58.734Z,55.81
2019-05-07T13:04:32.510Z,56.32
2019-05-07T13:07:03.099Z,57.90
2019-05-07T13:09:32.501Z,57.96
2019-05-07T13:12:03.056Z,56.31
2019-05-07T13:14:31.558Z,57.22
2019-05-07T13:17:00.162Z,56.80
2019-05-07T13:19:28.905Z,56.01
2019-05-07T13:21:57.646Z,54.06
2019-05-07T13:24:26.247Z,53.29
2019-05-07T13:26:54.822Z,52.80
2019-05-07T13:29:23.428Z,53.60
2019-05-07T13:31:55.002Z,54.16
2019-05-07T13:34:23.867Z,55.07
2019-05-07T13:36:57.402Z,53.49
2019-05-07T13:39:32.525Z,53.81
2019-05-07T13:42:05.878Z,54.79
2019-05-07T13:44:36.459Z,54.20
2019-05-07T13:47:22.861Z,53.12
2019-05-07T13:49:53.738Z,52.64
2019-05-07T13:52:24.108Z,51.83
2019-05-07T13:54:53.741Z,50.83
2019-05-07T13:57:23.371Z,51.70
2019-05-07T13:59:53.043Z,51.63
2019-05-07T14:02:24.245Z,51.09
2019-05-07T14:04:53.468Z,51.39
2019-05-07T14:07:22.836Z,51.76
2019-05-07T14:09:52.702Z,51.61
2019-05-07T14:12:22.925Z,51.37
2019-05-07T14:14:53.048Z,51.92
2019-05-07T14:17:22.092Z,51.07
2019-05-07T14:19:52.878Z,51.38
2019-05-07T14:22:22.597Z,51.88
2019-05-07T14:24:53.111Z,51.30
2019-05-07T14:27:22.008Z,51.79
2019-05-07T14:29:52.086Z,51.80
2019-05-07T14:32:28.818Z,53.13
2019-05-07T14:35:05.058Z,52.97
2019-05-07T14:37:35.302Z,53.70
2019-05-07T14:40:05.730Z,53.87
2019-05-07T14:42:45.249Z,53.81
2019-05-07T14:45:15.081Z,53.83
2019-05-07T14:47:46.024Z,54.67
2019-05-07T14:50:15.339Z,52.99
2019-05-07T14:52:43.948Z,53.14
2019-05-07T14:55:13.234Z,53.34
2019-05-07T14:57:42.194Z,53.73
2019-05-07T15:00:12.212Z,53.91
2019-05-07T15:02:42.127Z,53.77
2019-05-07T15:05:11.985Z,54.08
2019-05-07T15:07:42.211Z,54.82
2019-05-07T15:10:11.031Z,55.22
2019-05-07T15:12:39.641Z,55.32
2019-05-07T15:15:08.861Z,56.43
2019-05-07T15:17:42.133Z,55.90
2019-05-07T15:20:11.423Z,56.07
2019-05-07T15:22:49.061Z,55.38
2019-05-07T15:25:14.507Z,55.85
2019-05-07T15:27:45.397Z,55.42
2019-05-07T15:30:14.706Z,55.00
2019-05-07T15:32:43.316Z,54.98
2019-05-07T15:35:12.682Z,55.82
2019-05-07T15:37:42.733Z,55.84
2019-05-07T15:40:11.946Z,56.01
2019-05-07T15:42:42.132Z,54.93
2019-05-07T15:45:12.513Z,54.35
2019-05-07T15:47:43.327Z,54.43
2019-05-07T15:50:12.548Z,54.41
2019-05-07T15:52:43.395Z,54.38
2019-05-07T15:55:12.027Z,53.69
2019-05-07T15:57:42.673Z,54.40
2019-05-07T16:00:14.083Z,53.19
2019-05-07T16:02:45.379Z,52.66
2019-05-07T16:05:15.031Z,53.30
2019-05-07T16:07:45.209Z,52.72
2019-05-07T16:10:15.163Z,53.28
2019-05-07T16:12:44.380Z,53.55
2019-05-07T16:15:13.903Z,53.09
2019-05-07T16:17:52.159Z,52.76
2019-05-07T16:20:22.700Z,52.97
2019-05-07T16:23:13.937Z,52.09
2019-05-07T16:25:33.422Z,52.82
2019-05-07T16:28:04.745Z,53.74
2019-05-07T16:30:32.553Z,54.64
2019-05-07T16:33:02.148Z,54.14
2019-05-07T16:35:32.003Z,54.29
2019-05-07T16:38:00.968Z,54.62
2019-05-07T16:40:29.571Z,55.07
2019-05-07T16:42:58.180Z,55.76
2019-05-07T16:45:26.797Z,55.72
2019-05-07T16:47:55.326Z,54.14
2019-05-07T16:50:23.923Z,54.88
2019-05-07T16:52:52.649Z,54.83
2019-05-07T16:55:23.145Z,55.75
2019-05-07T16:57:58.829Z,56.21
2019-05-07T17:00:38.125Z,55.94
2019-05-07T17:03:08.387Z,56.45
2019-05-07T17:05:37.003Z,56.52
2019-05-07T17:08:07.247Z,56.97
2019-05-07T17:10:36.012Z,57.45
2019-05-07T17:13:04.644Z,57.22
2019-05-07T17:15:37.629Z,57.38
2019-05-07T17:18:06.239Z,58.02
2019-05-07T17:20:34.902Z,57.18
2019-05-07T17:23:03.490Z,57.53
2019-05-07T17:25:37.788Z,57.92
2019-05-07T17:28:08.295Z,58.26
2019-05-07T17:30:38.126Z,58.26
2019-05-07T17:33:07.056Z,58.27
2019-05-07T17:35:35.614Z,58.37
2019-05-07T17:38:07.224Z,58.66
2019-05-07T17:40:34.885Z,58.80
2019-05-07T17:43:03.554Z,58.99
2019-05-07T17:45:32.927Z,59.44
2019-05-07T17:48:03.161Z,59.25
2019-05-07T17:50:49.460Z,59.66
2019-05-07T17:53:18.076Z,60.04
2019-05-07T17:55:46.642Z,60.20
2019-05-07T17:58:15.236Z,60.35
2019-05-07T18:00:46.287Z,60.32
2019-05-07T18:03:22.555Z,59.79
2019-05-07T18:05:51.933Z,60.48
2019-05-07T18:08:21.753Z,60.12
2019-05-07T18:10:50.505Z,60.57
2019-05-07T18:13:19.039Z,60.75
2019-05-07T18:15:47.674Z,60.90
2019-05-07T18:18:16.895Z,61.45
2019-05-07T18:20:45.532Z,62.04
2019-05-07T18:23:16.830Z,61.90
2019-05-07T18:25:44.581Z,62.12
2019-05-07T18:28:13.184Z,62.00
2019-05-07T18:30:41.804Z,61.94
2019-05-07T18:33:15.046Z,62.31
2019-05-07T18:35:46.161Z,62.17
2019-05-07T18:38:14.775Z,62.77
2019-05-07T18:40:43.375Z,63.13
2019-05-07T18:43:12.358Z,62.89
2019-05-07T18:45:41.130Z,63.26
2019-05-07T18:48:11.766Z,62.98
2019-05-07T18:50:41.959Z,63.20
2019-05-07T18:53:12.176Z,63.21
2019-05-07T18:55:42.355Z,63.55
2019-05-07T18:58:13.187Z,63.96
2019-05-07T19:00:43.285Z,64.22
2019-05-07T19:03:11.901Z,64.16
2019-05-07T19:05:42.451Z,64.27
2019-05-07T19:08:12.607Z,64.75
2019-05-07T19:10:42.893Z,64.62
2019-05-07T19:13:11.902Z,64.61
2019-05-07T19:15:42.002Z,64.46
2019-05-07T19:18:12.047Z,64.38
2019-05-07T19:20:42.166Z,63.95
2019-05-07T19:23:10.902Z,64.57
2019-05-07T19:25:41.555Z,63.38
2019-05-07T19:28:12.763Z,63.09
2019-05-07T19:30:42.022Z,62.67
2019-05-07T19:33:12.332Z,62.82
2019-05-07T19:35:41.854Z,63.22
2019-05-07T19:38:10.796Z,62.84
2019-05-07T19:40:39.395Z,63.16
2019-05-07T19:43:08.067Z,63.16
2019-05-07T19:45:36.577Z,63.24
2019-05-07T19:48:05.417Z,63.74
2019-05-07T19:50:34.024Z,63.42
2019-05-07T19:53:03.002Z,64.22
2019-05-07T19:55:33.398Z,64.03
2019-05-07T19:58:03.647Z,63.72
2019-05-07T20:00:32.779Z,63.51
2019-05-07T20:03:03.384Z,63.63
2019-05-07T20:05:32.727Z,63.70
2019-05-07T20:08:04.470Z,63.48
2019-05-07T20:10:33.675Z,63.52
2019-05-07T20:13:03.136Z,64.26
2019-05-07T20:15:32.710Z,64.54
2019-05-07T20:18:03.145Z,64.71
2019-05-07T20:20:33.142Z,64.71
2019-05-07T20:23:02.584Z,65.25
2019-05-07T20:25:33.204Z,65.49
2019-05-07T20:28:02.261Z,65.59
2019-05-07T20:30:32.482Z,66.11
2019-05-07T20:33:03.070Z,66.59
2019-05-07T20:35:32.545Z,66.52
2019-05-07T20:38:02.943Z,67.31
2019-05-07T20:40:32.470Z,68.14
2019-05-07T20:43:01.918Z,68.25
2019-05-07T20:45:32.060Z,68.72
2019-05-07T20:48:02.525Z,68.97
2019-05-07T20:50:33.239Z,69.41
2019-05-07T20:53:02.216Z,69.80
2019-05-07T20:55:35.286Z,70.00
2019-05-07T20:58:03.964Z,69.92
2019-05-07T21:00:32.775Z,70.04
2019-05-07T21:03:19.016Z,70.15
2019-05-07T21:05:53.133Z,70.47
2019-05-07T21:08:22.681Z,70.78
2019-05-07T21:10:53.536Z,71.07
2019-05-07T21:13:28.474Z,71.40
2019-05-07T21:15:53.040Z,71.40
2019-05-07T21:18:23.354Z,71.55
2019-05-07T21:20:52.908Z,72.13
2019-05-07T21:23:23.126Z,72.38
2019-05-07T21:25:52.831Z,72.36
2019-05-07T21:28:21.896Z,72.71
2019-05-07T21:30:52.157Z,73.13
2019-05-07T21:33:22.951Z,73.48
2019-05-07T21:35:53.061Z,73.57
2019-05-07T21:38:22.390Z,73.74
2019-05-07T21:40:51.519Z,74.02
2019-05-07T21:43:22.138Z,74.41
2019-05-07T21:45:52.995Z,74.45
2019-05-07T21:48:22.294Z,74.89
2019-05-07T21:50:52.005Z,74.76
2019-05-07T21:53:32.423Z,74.80
2019-05-07T21:56:05.439Z,74.62
2019-05-07T21:58:47.009Z,74.85
2019-05-07T22:01:17.503Z,74.76
2019-05-07T22:03:48.053Z,74.81
2019-05-07T22:06:16.665Z,75.27
2019-05-07T22:08:45.298Z,75.25
2019-05-07T22:11:14.004Z,75.40
2019-05-07T22:13:43.570Z,75.54
2019-05-07T22:16:12.965Z,75.80
2019-05-07T22:18:42.759Z,75.80
2019-05-07T22:21:12.459Z,75.99
2019-05-07T22:23:42.776Z,76.00
2019-05-07T22:26:20.192Z,76.04
2019-05-07T22:28:42.293Z,76.26
2019-05-07T22:31:18.350Z,76.48
2019-05-07T22:33:52.807Z,76.81
2019-05-07T22:36:22.101Z,77.22
2019-05-07T22:38:52.670Z,77.04
2019-05-07T22:41:22.456Z,77.52
2019-05-07T22:43:51.211Z,77.62
2019-05-07T22:46:22.098Z,77.51
2019-05-07T22:48:50.155Z,77.54
2019-05-07T22:51:19.012Z,77.41
2019-05-07T22:53:47.544Z,77.16
2019-05-07T22:56:16.423Z,77.22
2019-05-07T22:58:46.550Z,77.50
2019-05-07T23:01:16.702Z,77.79
2019-05-07T23:03:45.303Z,77.87
2019-05-07T23:06:13.919Z,78.07
2019-05-07T23:08:44.053Z,78.19
2019-05-07T23:11:12.664Z,78.41
2019-05-07T23:13:42.676Z,78.64
2019-05-07T23:16:12.604Z,78.88
2019-05-07T23:18:42.893Z,78.73
2019-05-07T23:21:11.816Z,78.82
2019-05-07T23:23:42.219Z,78.93
2019-05-07T23:26:12.264Z,78.86
2019-05-07T23:28:41.900Z,78.84
2019-05-07T23:31:12.133Z,79.04
2019-05-07T23:33:40.926Z,79.28
2019-05-07T23:36:09.539Z,79.07
2019-05-07T23:38:38.092Z,79.22
2019-05-07T23:41:08.336Z,79.37
2019-05-07T23:43:37.018Z,79.43
2019-05-07T23:46:05.649Z,79.17
2019-05-07T23:48:34.291Z,79.06
2019-05-07T23:51:02.771Z,79.09
2019-05-07T23:53:31.361Z,79.11
2019-05-07T23:55:59.972Z,79.06
2019-05-07T23:58:28.495Z,79.32
